Dati meteorologici dell'aviazione (METAR)     LSZH Zürich Airport
Temperatura
50°F Temperatura
32°F Punto di rugiada
50% Umidità



Vento
18 MPH
29 KM/O
8 M/S
16 KTS



260°
O
Condizioni attuali

Area Docce Area Docce
Pressione 1009.82 (hPa) - 29.82 (inHg)
Visibilità 6 (miglio) - 9.7 (km)
Aeroporto
Codice-Aeroporto LSZH

Posizione: Zürich Airport
Distanza: 60 (mi)

Metar:
LSZH 161450Z 26016KT 230V300 9999 VCSH FEW046 BKN052 10/00 Q1010 NOSIG

Ore: 16-04-2024 16:50 CEST